Terminal Aerodrome Forecast
Issued by NWS

Home | Current Version | Previous Version | Text Only | Print | Product List | Glossary Off
Versions: 1 2 3 4 5 6 7 8 9 10 11 12 13

000
FTUS43 KTOP 222333
TAFFOE
TAF
KFOE 222333Z 2300/2324 18009KT P6SM SCT200
     FM230600 24005KT P6SM VCTS BKN070CB
     FM231000 01009KT P6SM VCSH BKN030
     FM231300 36011KT P6SM BKN040
     FM231600 36011KT P6SM SCT100=

USA.gov is the U.S. government's official web portal to all federal, state and local government web resources and services.